createdAt,value
2022-12-04T06:36:53.166Z,21.10
2022-12-04T06:41:55.194Z,22.15
2022-12-04T06:47:00.736Z,21.83
2022-12-04T06:52:03.918Z,21.05
2022-12-04T06:57:05.971Z,21.98
2022-12-04T07:02:09.492Z,21.67
2022-12-04T07:07:11.742Z,20.43
2022-12-04T07:12:13.786Z,22.13
2022-12-04T07:17:15.909Z,20.88
2022-12-04T07:22:17.966Z,20.93
2022-12-04T07:27:19.979Z,21.58
2022-12-04T07:32:22.001Z,22.85
2022-12-04T07:37:24.031Z,21.10
2022-12-04T07:42:26.025Z,22.50
2022-12-04T07:47:28.001Z,22.48
2022-12-04T07:52:30.118Z,21.77
2022-12-04T07:57:32.134Z,22.47
2022-12-04T08:02:34.145Z,22.62
2022-12-04T08:07:36.152Z,22.25
2022-12-04T08:12:38.193Z,23.47
2022-12-04T08:17:40.218Z,24.10
2022-12-04T08:22:42.380Z,23.52
2022-12-04T08:27:47.745Z,21.93
2022-12-04T08:32:50.191Z,22.00
2022-12-04T08:37:52.238Z,21.37
2022-12-04T08:42:54.273Z,20.53
2022-12-04T08:47:56.303Z,20.37
2022-12-04T08:52:58.740Z,20.05
2022-12-04T08:58:00.753Z,20.37
2022-12-04T09:03:02.834Z,19.60
2022-12-04T09:08:06.144Z,20.60
2022-12-04T09:13:08.698Z,20.25
2022-12-04T09:18:10.703Z,20.17
2022-12-04T09:23:12.697Z,18.92
2022-12-04T09:28:14.725Z,19.33
2022-12-04T09:33:16.724Z,18.77
2022-12-04T09:38:18.889Z,19.53
2022-12-04T09:43:59.869Z,20.27
2022-12-04T09:49:11.555Z,18.85
2022-12-04T09:54:17.910Z,18.50
2022-12-04T09:59:24.531Z,19.08
2022-12-04T10:04:26.673Z,20.23
2022-12-04T10:09:40.236Z,18.93
2022-12-04T10:14:46.550Z,17.92
2022-12-04T10:20:08.945Z,18.58
2022-12-04T10:25:22.240Z,17.27
2022-12-04T10:30:27.392Z,16.53
2022-12-04T10:35:32.330Z,15.43
2022-12-04T10:40:56.787Z,14.95
2022-12-04T10:45:59.005Z,13.70
2022-12-04T10:51:01.113Z,14.82
2022-12-04T10:56:14.775Z,14.45
2022-12-04T11:01:16.827Z,13.77
2022-12-04T11:06:25.269Z,14.65
2022-12-04T11:11:30.920Z,14.60
2022-12-04T11:16:40.644Z,12.90
2022-12-04T11:21:42.752Z,13.57
2022-12-04T11:26:47.700Z,12.52
2022-12-04T11:31:53.179Z,13.32
2022-12-04T11:36:57.134Z,12.13
2022-12-04T11:42:04.968Z,12.15
2022-12-04T11:47:18.305Z,13.93
2022-12-04T11:52:38.943Z,11.47
2022-12-04T11:57:48.219Z,11.45
2022-12-04T12:03:19.678Z,11.23
2022-12-04T12:08:45.911Z,12.00
2022-12-04T12:14:18.853Z,11.57
2022-12-04T12:19:33.499Z,11.23
2022-12-04T12:24:51.349Z,12.07
2022-12-04T12:30:06.012Z,12.57
2022-12-04T12:35:22.712Z,12.40
2022-12-04T12:40:41.685Z,11.93
2022-12-04T12:45:49.698Z,10.53
2022-12-04T12:51:22.038Z,11.05
2022-12-04T12:56:31.482Z,11.50
2022-12-04T13:02:10.807Z,11.33
2022-12-04T13:07:19.824Z,10.83
2022-12-04T13:12:23.811Z,10.55
2022-12-04T13:17:37.314Z,10.63
2022-12-04T13:23:10.998Z,10.20
2022-12-04T13:28:26.422Z,10.55
2022-12-04T13:33:37.393Z,10.13
2022-12-04T13:39:19.060Z,9.83
2022-12-04T13:44:24.111Z,10.30
2022-12-04T13:49:32.119Z,11.27
2022-12-04T13:54:36.596Z,11.10
2022-12-04T13:59:40.065Z,11.57
2022-12-04T14:04:53.158Z,11.23
2022-12-04T14:09:57.630Z,10.43
2022-12-04T14:15:04.859Z,11.63
2022-12-04T14:20:21.682Z,10.82
2022-12-04T14:25:34.829Z,11.52
2022-12-04T14:30:39.301Z,11.43
2022-12-04T14:36:24.743Z,11.77
2022-12-04T14:41:27.294Z,12.63
2022-12-04T14:46:39.337Z,12.93
2022-12-04T14:51:54.370Z,12.30
2022-12-04T14:57:24.266Z,13.32
2022-12-04T15:02:34.464Z,13.75
2022-12-04T15:07:37.088Z,12.50
2022-12-04T15:12:49.350Z,14.32
2022-12-04T15:18:05.265Z,13.52
2022-12-04T15:23:11.942Z,14.13
2022-12-04T15:28:31.296Z,14.32
2022-12-04T15:33:37.430Z,13.80
2022-12-04T15:38:40.527Z,15.73
2022-12-04T15:43:43.971Z,15.73
2022-12-04T15:48:48.014Z,17.42
2022-12-04T15:53:50.241Z,16.90
2022-12-04T15:59:00.160Z,18.43
2022-12-04T16:04:02.290Z,16.62
2022-12-04T16:09:22.540Z,17.87
2022-12-04T16:14:24.608Z,18.47
2022-12-04T16:19:33.961Z,19.15
2022-12-04T16:24:35.991Z,18.77
2022-12-04T16:29:38.045Z,18.60
2022-12-04T16:34:40.370Z,18.93
2022-12-04T16:39:42.475Z,17.87
2022-12-04T16:44:45.235Z,19.95
2022-12-04T16:49:49.866Z,20.33
2022-12-04T16:54:51.998Z,18.45
2022-12-04T16:59:54.164Z,19.80
2022-12-04T17:04:58.027Z,18.93
2022-12-04T17:10:00.347Z,19.23
2022-12-04T17:15:02.381Z,19.17
2022-12-04T17:20:11.527Z,17.83
2022-12-04T17:25:14.157Z,17.43
2022-12-04T17:30:16.445Z,15.55
2022-12-04T17:35:18.609Z,16.67
2022-12-04T17:40:20.707Z,16.20
2022-12-04T17:45:22.782Z,16.55
2022-12-04T17:50:24.801Z,15.90
2022-12-04T17:55:26.778Z,16.20
2022-12-04T18:00:28.775Z,16.70
2022-12-04T18:05:30.941Z,16.10
2022-12-04T18:10:34.823Z,16.47
2022-12-04T18:15:36.826Z,17.13
2022-12-04T18:20:39.099Z,16.98
2022-12-04T18:25:41.144Z,16.90
2022-12-04T18:30:43.219Z,16.80
2022-12-04T18:35:54.375Z,17.25
2022-12-04T18:41:01.300Z,17.77
2022-12-04T18:46:07.903Z,17.63
2022-12-04T18:51:34.858Z,16.95
2022-12-04T18:56:37.239Z,18.08
2022-12-04T19:01:39.992Z,18.07
2022-12-04T19:06:45.223Z,19.17
2022-12-04T19:11:47.402Z,15.10
2022-12-04T19:16:49.941Z,16.27
2022-12-04T19:21:52.010Z,13.23
2022-12-04T19:26:54.168Z,13.30
2022-12-04T19:31:59.206Z,12.55
2022-12-04T19:37:02.424Z,13.07
2022-12-04T19:42:04.508Z,12.15
2022-12-04T19:47:07.070Z,13.57
2022-12-04T19:52:09.132Z,13.50
2022-12-04T19:57:11.257Z,13.27
2022-12-04T20:02:13.997Z,13.00
2022-12-04T20:07:16.758Z,13.38
2022-12-04T20:12:18.807Z,13.10
2022-12-04T20:17:20.815Z,13.80
2022-12-04T20:22:22.948Z,12.70
2022-12-04T20:27:24.965Z,12.90
2022-12-04T20:32:26.975Z,12.57
2022-12-04T20:37:28.998Z,13.43
2022-12-04T20:42:33.585Z,12.80
2022-12-04T20:47:36.482Z,12.17
2022-12-04T20:52:38.534Z,14.07
2022-12-04T20:57:40.560Z,14.98
2022-12-04T21:02:43.612Z,13.80
2022-12-04T21:07:45.698Z,13.68
2022-12-04T21:13:06.501Z,13.48
2022-12-04T21:18:08.676Z,13.30
2022-12-04T21:23:10.764Z,13.50
2022-12-04T21:28:12.798Z,12.82
2022-12-04T21:33:14.830Z,14.00
2022-12-04T21:38:16.855Z,13.83
2022-12-04T21:43:18.856Z,13.60
2022-12-04T21:48:20.854Z,14.27
